sensor_id;sensor_type;location;lat;lon;timestamp;temperature;humidity
12426;DHT22;6277;49.824;9.562;2023-08-01T00:01:32;20.60;66.50
12426;DHT22;6277;49.824;9.562;2023-08-01T00:03:57;20.60;66.50
12426;DHT22;6277;49.824;9.562;2023-08-01T00:06:23;20.60;66.50
12426;DHT22;6277;49.824;9.562;2023-08-01T00:08:50;20.50;66.60
12426;DHT22;6277;49.824;9.562;2023-08-01T00:11:16;20.50;66.60
12426;DHT22;6277;49.824;9.562;2023-08-01T00:13:42;20.50;66.80
12426;DHT22;6277;49.824;9.562;2023-08-01T00:16:09;20.50;66.90
12426;DHT22;6277;49.824;9.562;2023-08-01T00:18:35;20.50;67.00
12426;DHT22;6277;49.824;9.562;2023-08-01T00:21:01;20.50;67.10
12426;DHT22;6277;49.824;9.562;2023-08-01T00:23:26;20.50;67.20
12426;DHT22;6277;49.824;9.562;2023-08-01T00:25:52;20.50;67.30
12426;DHT22;6277;49.824;9.562;2023-08-01T00:28:18;20.50;67.40
12426;DHT22;6277;49.824;9.562;2023-08-01T00:30:44;20.40;67.50
12426;DHT22;6277;49.824;9.562;2023-08-01T00:33:09;20.40;67.50
12426;DHT22;6277;49.824;9.562;2023-08-01T00:35:35;20.40;67.60
12426;DHT22;6277;49.824;9.562;2023-08-01T00:38:00;20.50;67.60
12426;DHT22;6277;49.824;9.562;2023-08-01T00:40:32;20.50;67.60
12426;DHT22;6277;49.824;9.562;2023-08-01T00:42:58;20.50;68.30
12426;DHT22;6277;49.824;9.562;2023-08-01T00:45:25;20.40;67.80
12426;DHT22;6277;49.824;9.562;2023-08-01T00:47:51;20.50;67.90
12426;DHT22;6277;49.824;9.562;2023-08-01T00:50:18;20.40;68.00
12426;DHT22;6277;49.824;9.562;2023-08-01T00:52:46;20.40;68.10
12426;DHT22;6277;49.824;9.562;2023-08-01T00:55:12;20.40;68.10
12426;DHT22;6277;49.824;9.562;2023-08-01T00:57:37;20.40;68.10
12426;DHT22;6277;49.824;9.562;2023-08-01T01:00:03;20.40;68.20
12426;DHT22;6277;49.824;9.562;2023-08-01T01:02:29;20.40;69.00
12426;DHT22;6277;49.824;9.562;2023-08-01T01:04:55;20.40;68.40
12426;DHT22;6277;49.824;9.562;2023-08-01T01:07:21;20.40;68.50
12426;DHT22;6277;49.824;9.562;2023-08-01T01:09:47;20.40;68.60
12426;DHT22;6277;49.824;9.562;2023-08-01T01:12:13;20.40;68.60
12426;DHT22;6277;49.824;9.562;2023-08-01T01:14:38;20.40;68.60
12426;DHT22;6277;49.824;9.562;2023-08-01T01:17:04;20.40;68.60
12426;DHT22;6277;49.824;9.562;2023-08-01T01:19:29;20.40;68.80
12426;DHT22;6277;49.824;9.562;2023-08-01T01:21:56;20.40;68.90
12426;DHT22;6277;49.824;9.562;2023-08-01T01:24:22;20.40;69.00
12426;DHT22;6277;49.824;9.562;2023-08-01T01:26:49;20.40;69.10
12426;DHT22;6277;49.824;9.562;2023-08-01T01:29:15;20.40;69.20
12426;DHT22;6277;49.824;9.562;2023-08-01T01:31:41;20.40;69.10
12426;DHT22;6277;49.824;9.562;2023-08-01T01:34:07;20.40;69.20
12426;DHT22;6277;49.824;9.562;2023-08-01T01:36:33;20.40;69.20
12426;DHT22;6277;49.824;9.562;2023-08-01T01:38:59;20.40;69.20
12426;DHT22;6277;49.824;9.562;2023-08-01T01:41:25;20.40;69.30
12426;DHT22;6277;49.824;9.562;2023-08-01T01:43:51;20.40;69.40
12426;DHT22;6277;49.824;9.562;2023-08-01T01:46:16;20.40;69.40
12426;DHT22;6277;49.824;9.562;2023-08-01T01:48:42;20.40;69.50
12426;DHT22;6277;49.824;9.562;2023-08-01T01:51:08;20.40;69.50
12426;DHT22;6277;49.824;9.562;2023-08-01T01:53:33;20.40;69.60
12426;DHT22;6277;49.824;9.562;2023-08-01T01:55:59;20.40;69.60
12426;DHT22;6277;49.824;9.562;2023-08-01T01:58:24;20.40;69.60
12426;DHT22;6277;49.824;9.562;2023-08-01T02:00:50;20.40;69.80
12426;DHT22;6277;49.824;9.562;2023-08-01T02:03:15;20.40;69.80
12426;DHT22;6277;49.824;9.562;2023-08-01T02:05:41;20.40;69.80
12426;DHT22;6277;49.824;9.562;2023-08-01T02:08:06;20.40;69.90
12426;DHT22;6277;49.824;9.562;2023-08-01T02:10:32;20.40;70.00
12426;DHT22;6277;49.824;9.562;2023-08-01T02:12:58;20.40;70.00
12426;DHT22;6277;49.824;9.562;2023-08-01T02:15:23;20.40;70.10
12426;DHT22;6277;49.824;9.562;2023-08-01T02:17:49;20.40;70.10
12426;DHT22;6277;49.824;9.562;2023-08-01T02:20:15;20.50;70.20
12426;DHT22;6277;49.824;9.562;2023-08-01T02:22:40;20.50;70.20
12426;DHT22;6277;49.824;9.562;2023-08-01T02:25:06;20.50;70.30
12426;DHT22;6277;49.824;9.562;2023-08-01T02:27:31;20.50;70.30
12426;DHT22;6277;49.824;9.562;2023-08-01T02:29:57;20.50;70.40
12426;DHT22;6277;49.824;9.562;2023-08-01T02:32:22;20.50;70.30
12426;DHT22;6277;49.824;9.562;2023-08-01T02:34:48;20.50;70.40
12426;DHT22;6277;49.824;9.562;2023-08-01T02:37:13;20.50;70.40
12426;DHT22;6277;49.824;9.562;2023-08-01T02:39:39;20.50;70.40
12426;DHT22;6277;49.824;9.562;2023-08-01T02:42:05;20.50;70.40
12426;DHT22;6277;49.824;9.562;2023-08-01T02:44:30;20.50;70.40
12426;DHT22;6277;49.824;9.562;2023-08-01T02:46:56;20.50;70.40
12426;DHT22;6277;49.824;9.562;2023-08-01T02:49:21;20.50;71.20
12426;DHT22;6277;49.824;9.562;2023-08-01T02:51:47;20.50;70.50
12426;DHT22;6277;49.824;9.562;2023-08-01T02:54:12;20.50;70.60
12426;DHT22;6277;49.824;9.562;2023-08-01T02:56:38;20.40;70.50
12426;DHT22;6277;49.824;9.562;2023-08-01T02:59:07;20.40;70.60
12426;DHT22;6277;49.824;9.562;2023-08-01T03:01:34;20.40;70.80
12426;DHT22;6277;49.824;9.562;2023-08-01T03:04:01;20.40;70.80
12426;DHT22;6277;49.824;9.562;2023-08-01T03:06:27;20.40;70.90
12426;DHT22;6277;49.824;9.562;2023-08-01T03:08:53;20.30;70.90
12426;DHT22;6277;49.824;9.562;2023-08-01T03:11:18;20.30;71.00
12426;DHT22;6277;49.824;9.562;2023-08-01T03:13:44;20.30;71.20
12426;DHT22;6277;49.824;9.562;2023-08-01T03:16:09;20.30;71.20
12426;DHT22;6277;49.824;9.562;2023-08-01T03:18:35;20.30;71.30
12426;DHT22;6277;49.824;9.562;2023-08-01T03:21:01;20.30;71.40
12426;DHT22;6277;49.824;9.562;2023-08-01T03:23:29;20.30;71.30
12426;DHT22;6277;49.824;9.562;2023-08-01T03:25:55;20.30;72.10
12426;DHT22;6277;49.824;9.562;2023-08-01T03:28:20;20.30;71.60
12426;DHT22;6277;49.824;9.562;2023-08-01T03:30:46;20.20;71.70
12426;DHT22;6277;49.824;9.562;2023-08-01T03:33:15;20.30;71.80
12426;DHT22;6277;49.824;9.562;2023-08-01T03:35:40;20.20;71.80
12426;DHT22;6277;49.824;9.562;2023-08-01T03:38:06;20.30;72.50
12426;DHT22;6277;49.824;9.562;2023-08-01T03:40:32;20.20;71.90
12426;DHT22;6277;49.824;9.562;2023-08-01T03:42:57;20.30;72.00
12426;DHT22;6277;49.824;9.562;2023-08-01T03:45:23;20.20;71.90
12426;DHT22;6277;49.824;9.562;2023-08-01T03:47:48;20.20;71.90
12426;DHT22;6277;49.824;9.562;2023-08-01T03:50:14;20.20;71.90
12426;DHT22;6277;49.824;9.562;2023-08-01T03:52:39;20.20;72.00
12426;DHT22;6277;49.824;9.562;2023-08-01T03:55:06;20.20;72.00
12426;DHT22;6277;49.824;9.562;2023-08-01T03:57:31;20.20;72.10
12426;DHT22;6277;49.824;9.562;2023-08-01T03:59:59;20.20;72.20
12426;DHT22;6277;49.824;9.562;2023-08-01T04:02:25;20.20;72.40
12426;DHT22;6277;49.824;9.562;2023-08-01T04:04:50;20.20;72.40
12426;DHT22;6277;49.824;9.562;2023-08-01T04:07:16;20.20;72.40
12426;DHT22;6277;49.824;9.562;2023-08-01T04:09:41;20.20;72.50
12426;DHT22;6277;49.824;9.562;2023-08-01T04:12:07;20.20;72.60
12426;DHT22;6277;49.824;9.562;2023-08-01T04:14:34;20.20;72.80
12426;DHT22;6277;49.824;9.562;2023-08-01T04:16:59;20.20;72.90
12426;DHT22;6277;49.824;9.562;2023-08-01T04:19:25;20.20;72.90
12426;DHT22;6277;49.824;9.562;2023-08-01T04:21:50;20.20;73.00
12426;DHT22;6277;49.824;9.562;2023-08-01T04:24:16;20.10;72.90
12426;DHT22;6277;49.824;9.562;2023-08-01T04:26:41;20.10;73.00
12426;DHT22;6277;49.824;9.562;2023-08-01T04:29:07;20.10;73.10
12426;DHT22;6277;49.824;9.562;2023-08-01T04:31:33;20.10;73.20
12426;DHT22;6277;49.824;9.562;2023-08-01T04:33:58;20.10;73.10
12426;DHT22;6277;49.824;9.562;2023-08-01T04:36:24;20.10;73.20
12426;DHT22;6277;49.824;9.562;2023-08-01T04:38:49;20.10;73.30
12426;DHT22;6277;49.824;9.562;2023-08-01T04:41:15;20.10;73.30
12426;DHT22;6277;49.824;9.562;2023-08-01T04:43:40;20.00;73.20
12426;DHT22;6277;49.824;9.562;2023-08-01T04:46:06;20.00;73.40
12426;DHT22;6277;49.824;9.562;2023-08-01T04:48:32;19.90;73.50
12426;DHT22;6277;49.824;9.562;2023-08-01T04:50:57;19.90;73.60
12426;DHT22;6277;49.824;9.562;2023-08-01T04:53:23;19.90;73.80
12426;DHT22;6277;49.824;9.562;2023-08-01T04:55:48;19.90;73.90
12426;DHT22;6277;49.824;9.562;2023-08-01T04:58:14;19.80;73.80
12426;DHT22;6277;49.824;9.562;2023-08-01T05:00:42;19.80;73.80
12426;DHT22;6277;49.824;9.562;2023-08-01T05:03:08;19.80;74.20
12426;DHT22;6277;49.824;9.562;2023-08-01T05:05:33;19.80;74.20
12426;DHT22;6277;49.824;9.562;2023-08-01T05:07:59;19.80;74.10
12426;DHT22;6277;49.824;9.562;2023-08-01T05:10:24;19.80;74.30
12426;DHT22;6277;49.824;9.562;2023-08-01T05:12:50;19.70;74.30
12426;DHT22;6277;49.824;9.562;2023-08-01T05:15:15;19.70;74.50
12426;DHT22;6277;49.824;9.562;2023-08-01T05:17:41;19.70;74.60
12426;DHT22;6277;49.824;9.562;2023-08-01T05:20:07;19.70;74.50
12426;DHT22;6277;49.824;9.562;2023-08-01T05:22:32;19.70;74.80
12426;DHT22;6277;49.824;9.562;2023-08-01T05:24:58;19.70;74.80
12426;DHT22;6277;49.824;9.562;2023-08-01T05:27:24;19.70;74.80
12426;DHT22;6277;49.824;9.562;2023-08-01T05:29:49;19.70;75.00
12426;DHT22;6277;49.824;9.562;2023-08-01T05:32:15;19.70;75.00
12426;DHT22;6277;49.824;9.562;2023-08-01T05:34:40;19.70;75.20
12426;DHT22;6277;49.824;9.562;2023-08-01T05:37:06;19.70;75.30
12426;DHT22;6277;49.824;9.562;2023-08-01T05:39:31;19.70;75.40
12426;DHT22;6277;49.824;9.562;2023-08-01T05:41:57;19.70;75.50
12426;DHT22;6277;49.824;9.562;2023-08-01T05:44:22;19.80;75.50
12426;DHT22;6277;49.824;9.562;2023-08-01T05:46:48;19.80;75.50
12426;DHT22;6277;49.824;9.562;2023-08-01T05:49:13;19.80;75.50
12426;DHT22;6277;49.824;9.562;2023-08-01T05:51:39;19.80;75.60
12426;DHT22;6277;49.824;9.562;2023-08-01T05:54:04;19.80;75.60
12426;DHT22;6277;49.824;9.562;2023-08-01T05:56:30;19.90;75.70
12426;DHT22;6277;49.824;9.562;2023-08-01T05:58:56;19.90;75.80
12426;DHT22;6277;49.824;9.562;2023-08-01T06:01:22;20.00;75.80
12426;DHT22;6277;49.824;9.562;2023-08-01T06:03:47;19.90;75.70
12426;DHT22;6277;49.824;9.562;2023-08-01T06:06:13;20.00;75.80
12426;DHT22;6277;49.824;9.562;2023-08-01T06:08:38;20.00;75.70
12426;DHT22;6277;49.824;9.562;2023-08-01T06:11:04;20.00;75.60
12426;DHT22;6277;49.824;9.562;2023-08-01T06:13:30;20.00;75.60
12426;DHT22;6277;49.824;9.562;2023-08-01T06:15:56;20.00;75.50
12426;DHT22;6277;49.824;9.562;2023-08-01T06:18:21;20.00;75.50
12426;DHT22;6277;49.824;9.562;2023-08-01T06:20:47;20.00;75.50
12426;DHT22;6277;49.824;9.562;2023-08-01T06:23:13;19.90;75.60
12426;DHT22;6277;49.824;9.562;2023-08-01T06:25:38;20.00;75.60
12426;DHT22;6277;49.824;9.562;2023-08-01T06:28:04;20.00;75.40
12426;DHT22;6277;49.824;9.562;2023-08-01T06:30:29;20.00;75.40
12426;DHT22;6277;49.824;9.562;2023-08-01T06:32:55;20.00;75.30
12426;DHT22;6277;49.824;9.562;2023-08-01T06:35:20;19.90;75.30
12426;DHT22;6277;49.824;9.562;2023-08-01T06:37:46;20.00;75.50
12426;DHT22;6277;49.824;9.562;2023-08-01T06:40:12;20.00;75.50
12426;DHT22;6277;49.824;9.562;2023-08-01T06:42:37;20.00;75.60
12426;DHT22;6277;49.824;9.562;2023-08-01T06:45:04;20.00;75.80
12426;DHT22;6277;49.824;9.562;2023-08-01T06:47:29;20.10;76.00
12426;DHT22;6277;49.824;9.562;2023-08-01T06:49:55;20.10;75.90
12426;DHT22;6277;49.824;9.562;2023-08-01T06:52:21;20.10;75.70
12426;DHT22;6277;49.824;9.562;2023-08-01T06:54:46;20.20;75.70
12426;DHT22;6277;49.824;9.562;2023-08-01T06:57:12;20.20;75.50
12426;DHT22;6277;49.824;9.562;2023-08-01T06:59:37;20.20;75.50
12426;DHT22;6277;49.824;9.562;2023-08-01T07:02:03;20.30;75.60
12426;DHT22;6277;49.824;9.562;2023-08-01T07:04:29;20.30;75.60
12426;DHT22;6277;49.824;9.562;2023-08-01T07:06:54;20.30;75.60
12426;DHT22;6277;49.824;9.562;2023-08-01T07:09:20;20.30;75.60
12426;DHT22;6277;49.824;9.562;2023-08-01T07:11:45;20.30;75.60
12426;DHT22;6277;49.824;9.562;2023-08-01T07:14:11;20.40;75.70
12426;DHT22;6277;49.824;9.562;2023-08-01T07:16:36;20.40;75.80
12426;DHT22;6277;49.824;9.562;2023-08-01T07:19:02;20.40;75.80
12426;DHT22;6277;49.824;9.562;2023-08-01T07:21:27;20.50;75.70
12426;DHT22;6277;49.824;9.562;2023-08-01T07:23:54;20.50;75.60
12426;DHT22;6277;49.824;9.562;2023-08-01T07:26:20;20.50;75.60
12426;DHT22;6277;49.824;9.562;2023-08-01T07:28:45;20.60;75.60
12426;DHT22;6277;49.824;9.562;2023-08-01T07:31:11;20.60;75.70
12426;DHT22;6277;49.824;9.562;2023-08-01T07:33:36;20.70;75.60
12426;DHT22;6277;49.824;9.562;2023-08-01T07:36:03;20.70;75.50
12426;DHT22;6277;49.824;9.562;2023-08-01T07:38:28;20.80;75.50
12426;DHT22;6277;49.824;9.562;2023-08-01T07:40:57;20.80;75.40
12426;DHT22;6277;49.824;9.562;2023-08-01T07:43:22;20.80;75.20
12426;DHT22;6277;49.824;9.562;2023-08-01T07:45:49;20.80;75.20
12426;DHT22;6277;49.824;9.562;2023-08-01T07:48:16;20.80;75.20
12426;DHT22;6277;49.824;9.562;2023-08-01T07:50:41;20.90;75.30
12426;DHT22;6277;49.824;9.562;2023-08-01T07:53:07;20.90;75.40
12426;DHT22;6277;49.824;9.562;2023-08-01T07:55:35;21.00;75.60
12426;DHT22;6277;49.824;9.562;2023-08-01T07:58:01;21.00;75.60
12426;DHT22;6277;49.824;9.562;2023-08-01T08:00:27;21.10;75.70
12426;DHT22;6277;49.824;9.562;2023-08-01T08:02:53;21.20;76.00
12426;DHT22;6277;49.824;9.562;2023-08-01T08:05:19;21.30;75.90
12426;DHT22;6277;49.824;9.562;2023-08-01T08:07:44;21.30;75.90
12426;DHT22;6277;49.824;9.562;2023-08-01T08:10:10;21.40;75.60
12426;DHT22;6277;49.824;9.562;2023-08-01T08:12:35;21.50;75.40
12426;DHT22;6277;49.824;9.562;2023-08-01T08:15:01;21.50;75.40
12426;DHT22;6277;49.824;9.562;2023-08-01T08:17:27;21.60;75.30
12426;DHT22;6277;49.824;9.562;2023-08-01T08:19:53;21.60;75.40
12426;DHT22;6277;49.824;9.562;2023-08-01T08:22:18;21.70;75.30
12426;DHT22;6277;49.824;9.562;2023-08-01T08:24:44;21.80;75.30
12426;DHT22;6277;49.824;9.562;2023-08-01T08:27:09;21.80;75.20
12426;DHT22;6277;49.824;9.562;2023-08-01T08:29:35;21.90;75.30
12426;DHT22;6277;49.824;9.562;2023-08-01T08:32:00;22.00;75.20
12426;DHT22;6277;49.824;9.562;2023-08-01T08:34:26;22.10;74.90
12426;DHT22;6277;49.824;9.562;2023-08-01T08:36:52;22.10;74.40
12426;DHT22;6277;49.824;9.562;2023-08-01T08:39:18;22.20;74.10
12426;DHT22;6277;49.824;9.562;2023-08-01T08:41:48;22.10;73.80
12426;DHT22;6277;49.824;9.562;2023-08-01T08:44:15;22.10;73.30
12426;DHT22;6277;49.824;9.562;2023-08-01T08:46:53;22.10;73.40
12426;DHT22;6277;49.824;9.562;2023-08-01T08:49:20;22.00;73.10
12426;DHT22;6277;49.824;9.562;2023-08-01T08:51:47;21.90;72.90
12426;DHT22;6277;49.824;9.562;2023-08-01T08:54:15;21.60;72.40
12426;DHT22;6277;49.824;9.562;2023-08-01T08:56:41;21.30;72.70
12426;DHT22;6277;49.824;9.562;2023-08-01T08:59:09;20.90;73.20
12426;DHT22;6277;49.824;9.562;2023-08-01T09:01:39;20.40;74.00
12426;DHT22;6277;49.824;9.562;2023-08-01T09:04:05;20.10;74.90
12426;DHT22;6277;49.824;9.562;2023-08-01T09:06:40;19.70;75.90
12426;DHT22;6277;49.824;9.562;2023-08-01T09:09:15;19.40;77.00
12426;DHT22;6277;49.824;9.562;2023-08-01T09:11:47;19.20;78.10
12426;DHT22;6277;49.824;9.562;2023-08-01T09:14:13;19.00;78.80
12426;DHT22;6277;49.824;9.562;2023-08-01T09:16:40;19.00;79.70
12426;DHT22;6277;49.824;9.562;2023-08-01T09:19:06;18.90;80.40
12426;DHT22;6277;49.824;9.562;2023-08-01T09:21:33;18.90;81.30
12426;DHT22;6277;49.824;9.562;2023-08-01T09:24:17;18.90;81.70
12426;DHT22;6277;49.824;9.562;2023-08-01T09:26:43;19.00;82.40
12426;DHT22;6277;49.824;9.562;2023-08-01T09:29:09;19.00;83.10
12426;DHT22;6277;49.824;9.562;2023-08-01T09:31:37;19.10;82.30
12426;DHT22;6277;49.824;9.562;2023-08-01T09:34:05;19.10;82.80
12426;DHT22;6277;49.824;9.562;2023-08-01T09:36:31;19.20;83.30
12426;DHT22;6277;49.824;9.562;2023-08-01T09:39:02;19.20;83.70
12426;DHT22;6277;49.824;9.562;2023-08-01T09:41:31;19.30;84.60
12426;DHT22;6277;49.824;9.562;2023-08-01T09:43:57;19.40;85.00
12426;DHT22;6277;49.824;9.562;2023-08-01T09:46:24;19.60;85.10
12426;DHT22;6277;49.824;9.562;2023-08-01T09:48:50;19.70;85.40
12426;DHT22;6277;49.824;9.562;2023-08-01T09:51:17;19.80;85.60
12426;DHT22;6277;49.824;9.562;2023-08-01T09:53:53;19.90;85.90
12426;DHT22;6277;49.824;9.562;2023-08-01T09:56:29;20.00;86.40
12426;DHT22;6277;49.824;9.562;2023-08-01T09:58:55;20.20;86.90
12426;DHT22;6277;49.824;9.562;2023-08-01T10:01:24;20.30;87.40
12426;DHT22;6277;49.824;9.562;2023-08-01T10:03:51;20.50;87.60
12426;DHT22;6277;49.824;9.562;2023-08-01T10:06:20;20.70;87.70
12426;DHT22;6277;49.824;9.562;2023-08-01T10:08:46;20.80;87.90
12426;DHT22;6277;49.824;9.562;2023-08-01T10:11:16;21.00;88.10
12426;DHT22;6277;49.824;9.562;2023-08-01T10:13:42;21.10;87.70
12426;DHT22;6277;49.824;9.562;2023-08-01T10:16:09;21.30;87.70
12426;DHT22;6277;49.824;9.562;2023-08-01T10:18:34;21.40;87.50
12426;DHT22;6277;49.824;9.562;2023-08-01T10:21:04;21.50;87.10
12426;DHT22;6277;49.824;9.562;2023-08-01T10:23:30;21.60;86.70
12426;DHT22;6277;49.824;9.562;2023-08-01T10:25:56;21.70;86.60
12426;DHT22;6277;49.824;9.562;2023-08-01T10:28:41;21.70;86.70
12426;DHT22;6277;49.824;9.562;2023-08-01T10:31:17;21.80;87.10
12426;DHT22;6277;49.824;9.562;2023-08-01T10:33:47;21.90;87.60
12426;DHT22;6277;49.824;9.562;2023-08-01T10:41:33;22.20;86.60
12426;DHT22;6277;49.824;9.562;2023-08-01T10:46:53;22.20;86.00
12426;DHT22;6277;49.824;9.562;2023-08-01T10:49:21;22.10;86.10
12426;DHT22;6277;49.824;9.562;2023-08-01T10:51:57;22.10;86.50
12426;DHT22;6277;49.824;9.562;2023-08-01T10:54:24;22.20;86.50
12426;DHT22;6277;49.824;9.562;2023-08-01T10:56:56;22.10;86.10
12426;DHT22;6277;49.824;9.562;2023-08-01T10:59:23;22.10;85.30
12426;DHT22;6277;49.824;9.562;2023-08-01T11:01:51;22.00;85.60
12426;DHT22;6277;49.824;9.562;2023-08-01T11:04:18;22.00;85.20
12426;DHT22;6277;49.824;9.562;2023-08-01T11:06:46;22.00;85.60
12426;DHT22;6277;49.824;9.562;2023-08-01T11:09:25;22.00;86.00
12426;DHT22;6277;49.824;9.562;2023-08-01T11:11:53;22.00;86.50
12426;DHT22;6277;49.824;9.562;2023-08-01T11:14:20;22.10;88.40
12426;DHT22;6277;49.824;9.562;2023-08-01T11:16:48;22.30;89.10
12426;DHT22;6277;49.824;9.562;2023-08-01T11:19:27;22.50;89.30
12426;DHT22;6277;49.824;9.562;2023-08-01T11:21:53;22.70;88.00
12426;DHT22;6277;49.824;9.562;2023-08-01T11:24:22;22.90;89.00
12426;DHT22;6277;49.824;9.562;2023-08-01T11:26:49;23.00;88.70
12426;DHT22;6277;49.824;9.562;2023-08-01T11:29:15;23.20;87.80
12426;DHT22;6277;49.824;9.562;2023-08-01T11:31:51;23.30;88.60
12426;DHT22;6277;49.824;9.562;2023-08-01T11:34:18;23.50;89.00
12426;DHT22;6277;49.824;9.562;2023-08-01T11:36:43;23.60;89.30
12426;DHT22;6277;49.824;9.562;2023-08-01T11:39:11;23.70;89.20
12426;DHT22;6277;49.824;9.562;2023-08-01T11:41:38;23.90;88.70
12426;DHT22;6277;49.824;9.562;2023-08-01T11:44:04;24.00;88.40
12426;DHT22;6277;49.824;9.562;2023-08-01T11:46:34;24.10;88.10
12426;DHT22;6277;49.824;9.562;2023-08-01T11:49:01;24.20;86.60
12426;DHT22;6277;49.824;9.562;2023-08-01T11:51:27;24.30;87.10
12426;DHT22;6277;49.824;9.562;2023-08-01T11:54:03;24.40;86.90
12426;DHT22;6277;49.824;9.562;2023-08-01T11:56:30;24.40;82.20
12426;DHT22;6277;49.824;9.562;2023-08-01T11:58:56;24.40;84.40
12426;DHT22;6277;49.824;9.562;2023-08-01T12:01:22;24.50;84.80
12426;DHT22;6277;49.824;9.562;2023-08-01T12:03:54;24.50;84.00
12426;DHT22;6277;49.824;9.562;2023-08-01T12:06:22;24.60;82.10
12426;DHT22;6277;49.824;9.562;2023-08-01T12:08:50;24.70;83.20
12426;DHT22;6277;49.824;9.562;2023-08-01T12:11:26;24.70;82.10
12426;DHT22;6277;49.824;9.562;2023-08-01T12:14:19;24.70;79.00
12426;DHT22;6277;49.824;9.562;2023-08-01T12:16:46;24.70;75.20
12426;DHT22;6277;49.824;9.562;2023-08-01T12:19:19;24.70;77.80
12426;DHT22;6277;49.824;9.562;2023-08-01T12:21:45;24.60;75.80
12426;DHT22;6277;49.824;9.562;2023-08-01T12:24:12;24.60;77.10
12426;DHT22;6277;49.824;9.562;2023-08-01T12:26:37;24.60;76.90
12426;DHT22;6277;49.824;9.562;2023-08-01T12:29:03;24.60;77.20
12426;DHT22;6277;49.824;9.562;2023-08-01T12:31:28;24.70;77.60
12426;DHT22;6277;49.824;9.562;2023-08-01T12:33:54;24.80;77.60
12426;DHT22;6277;49.824;9.562;2023-08-01T12:36:20;24.90;76.50
12426;DHT22;6277;49.824;9.562;2023-08-01T12:38:45;25.00;76.60
12426;DHT22;6277;49.824;9.562;2023-08-01T12:41:11;25.10;75.50
12426;DHT22;6277;49.824;9.562;2023-08-01T12:43:37;25.20;74.40
12426;DHT22;6277;49.824;9.562;2023-08-01T12:46:03;25.30;75.10
12426;DHT22;6277;49.824;9.562;2023-08-01T12:48:28;25.30;74.20
12426;DHT22;6277;49.824;9.562;2023-08-01T12:50:54;25.40;72.60
12426;DHT22;6277;49.824;9.562;2023-08-01T12:53:21;25.40;71.50
12426;DHT22;6277;49.824;9.562;2023-08-01T12:55:47;25.40;70.70
12426;DHT22;6277;49.824;9.562;2023-08-01T12:58:14;25.30;69.90
12426;DHT22;6277;49.824;9.562;2023-08-01T13:00:40;25.20;69.30
12426;DHT22;6277;49.824;9.562;2023-08-01T13:03:06;25.20;69.60
12426;DHT22;6277;49.824;9.562;2023-08-01T13:05:36;25.10;70.10
12426;DHT22;6277;49.824;9.562;2023-08-01T13:08:02;25.10;67.10
12426;DHT22;6277;49.824;9.562;2023-08-01T13:10:32;25.00;67.80
12426;DHT22;6277;49.824;9.562;2023-08-01T13:12:58;25.00;63.90
12426;DHT22;6277;49.824;9.562;2023-08-01T13:15:24;25.00;65.60
12426;DHT22;6277;49.824;9.562;2023-08-01T13:17:50;25.10;66.10
12426;DHT22;6277;49.824;9.562;2023-08-01T13:20:16;25.00;65.30
12426;DHT22;6277;49.824;9.562;2023-08-01T13:22:45;25.10;65.50
12426;DHT22;6277;49.824;9.562;2023-08-01T13:25:13;25.20;65.00
12426;DHT22;6277;49.824;9.562;2023-08-01T13:27:38;25.30;63.90
12426;DHT22;6277;49.824;9.562;2023-08-01T13:30:05;25.40;65.30
12426;DHT22;6277;49.824;9.562;2023-08-01T13:32:30;25.60;65.40
12426;DHT22;6277;49.824;9.562;2023-08-01T13:34:56;25.70;64.20
12426;DHT22;6277;49.824;9.562;2023-08-01T13:37:22;26.00;63.90
12426;DHT22;6277;49.824;9.562;2023-08-01T13:39:47;26.10;63.90
12426;DHT22;6277;49.824;9.562;2023-08-01T13:42:13;26.30;63.10
12426;DHT22;6277;49.824;9.562;2023-08-01T13:44:40;26.50;64.00
12426;DHT22;6277;49.824;9.562;2023-08-01T13:47:05;26.70;62.70
12426;DHT22;6277;49.824;9.562;2023-08-01T13:49:31;26.80;60.60
12426;DHT22;6277;49.824;9.562;2023-08-01T13:51:58;26.80;60.20
12426;DHT22;6277;49.824;9.562;2023-08-01T13:54:24;26.80;59.80
12426;DHT22;6277;49.824;9.562;2023-08-01T13:56:49;26.80;59.60
12426;DHT22;6277;49.824;9.562;2023-08-01T13:59:15;26.70;59.10
12426;DHT22;6277;49.824;9.562;2023-08-01T14:01:40;26.60;59.20
12426;DHT22;6277;49.824;9.562;2023-08-01T14:04:06;26.40;58.20
12426;DHT22;6277;49.824;9.562;2023-08-01T14:06:31;26.40;58.90
12426;DHT22;6277;49.824;9.562;2023-08-01T14:08:57;26.30;58.90
12426;DHT22;6277;49.824;9.562;2023-08-01T14:11:22;26.20;58.70
12426;DHT22;6277;49.824;9.562;2023-08-01T14:13:49;26.10;57.80
12426;DHT22;6277;49.824;9.562;2023-08-01T14:16:14;26.10;58.30
12426;DHT22;6277;49.824;9.562;2023-08-01T14:18:41;25.90;58.50
12426;DHT22;6277;49.824;9.562;2023-08-01T14:21:08;25.90;59.00
12426;DHT22;6277;49.824;9.562;2023-08-01T14:23:33;25.70;58.60
12426;DHT22;6277;49.824;9.562;2023-08-01T14:25:59;25.70;59.00
12426;DHT22;6277;49.824;9.562;2023-08-01T14:28:25;25.60;59.30
12426;DHT22;6277;49.824;9.562;2023-08-01T14:30:50;25.70;59.70
12426;DHT22;6277;49.824;9.562;2023-08-01T14:33:16;25.70;59.30
12426;DHT22;6277;49.824;9.562;2023-08-01T14:35:41;25.80;59.80
12426;DHT22;6277;49.824;9.562;2023-08-01T14:38:07;25.90;59.40
12426;DHT22;6277;49.824;9.562;2023-08-01T14:40:34;26.00;58.60
12426;DHT22;6277;49.824;9.562;2023-08-01T14:43:01;26.10;58.70
12426;DHT22;6277;49.824;9.562;2023-08-01T14:45:27;26.20;57.00
12426;DHT22;6277;49.824;9.562;2023-08-01T14:47:53;26.20;56.80
12426;DHT22;6277;49.824;9.562;2023-08-01T14:50:18;26.10;56.30
12426;DHT22;6277;49.824;9.562;2023-08-01T14:52:44;26.00;55.80
12426;DHT22;6277;49.824;9.562;2023-08-01T14:55:10;25.80;56.70
12426;DHT22;6277;49.824;9.562;2023-08-01T14:57:35;25.80;57.50
12426;DHT22;6277;49.824;9.562;2023-08-01T15:00:01;25.90;58.00
12426;DHT22;6277;49.824;9.562;2023-08-01T15:02:28;26.00;58.00
12426;DHT22;6277;49.824;9.562;2023-08-01T15:04:54;26.30;58.60
12426;DHT22;6277;49.824;9.562;2023-08-01T15:07:21;26.50;58.30
12426;DHT22;6277;49.824;9.562;2023-08-01T15:09:47;26.80;58.20
12426;DHT22;6277;49.824;9.562;2023-08-01T15:12:15;26.90;56.90
12426;DHT22;6277;49.824;9.562;2023-08-01T15:14:41;27.00;56.50
12426;DHT22;6277;49.824;9.562;2023-08-01T15:17:06;27.00;54.90
12426;DHT22;6277;49.824;9.562;2023-08-01T15:19:32;26.90;55.90
12426;DHT22;6277;49.824;9.562;2023-08-01T15:21:58;26.90;56.00
12426;DHT22;6277;49.824;9.562;2023-08-01T15:24:24;26.80;56.00
12426;DHT22;6277;49.824;9.562;2023-08-01T15:26:50;26.80;55.10
12426;DHT22;6277;49.824;9.562;2023-08-01T15:29:15;26.60;55.30
12426;DHT22;6277;49.824;9.562;2023-08-01T15:31:41;26.30;54.00
12426;DHT22;6277;49.824;9.562;2023-08-01T15:34:07;26.10;57.30
12426;DHT22;6277;49.824;9.562;2023-08-01T15:36:34;25.50;58.10
12426;DHT22;6277;49.824;9.562;2023-08-01T15:39:00;24.60;59.10
12426;DHT22;6277;49.824;9.562;2023-08-01T15:41:26;23.80;60.50
12426;DHT22;6277;49.824;9.562;2023-08-01T15:43:52;22.90;62.40
12426;DHT22;6277;49.824;9.562;2023-08-01T15:46:18;22.20;64.00
12426;DHT22;6277;49.824;9.562;2023-08-01T15:48:43;21.50;65.50